sensor_id;sensor_type;location;lat;lon;timestamp;P1;durP1;ratioP1;P2;durP2;ratioP2
57565;SDS011;63999;43.882;-0.310;2023-03-23T00:01:17;7.53;;;3.30;;
57565;SDS011;63999;43.882;-0.310;2023-03-23T00:03:46;5.60;;;3.65;;
57565;SDS011;63999;43.882;-0.310;2023-03-23T00:06:14;6.57;;;3.80;;
57565;SDS011;63999;43.882;-0.310;2023-03-23T00:08:42;8.65;;;3.85;;
57565;SDS011;63999;43.882;-0.310;2023-03-23T00:11:10;6.70;;;3.70;;
57565;SDS011;63999;43.882;-0.310;2023-03-23T00:13:45;5.25;;;3.42;;
57565;SDS011;63999;43.882;-0.310;2023-03-23T00:16:12;7.15;;;4.25;;
57565;SDS011;63999;43.882;-0.310;2023-03-23T00:18:45;5.65;;;3.65;;
57565;SDS011;63999;43.882;-0.310;2023-03-23T00:21:17;5.47;;;3.92;;
57565;SDS011;63999;43.882;-0.310;2023-03-23T00:23:44;6.72;;;3.60;;
57565;SDS011;63999;43.882;-0.310;2023-03-23T00:26:10;5.97;;;3.35;;
57565;SDS011;63999;43.882;-0.310;2023-03-23T00:28:36;6.90;;;4.28;;
57565;SDS011;63999;43.882;-0.310;2023-03-23T00:31:05;6.50;;;4.13;;
57565;SDS011;63999;43.882;-0.310;2023-03-23T00:33:34;6.82;;;4.00;;
57565;SDS011;63999;43.882;-0.310;2023-03-23T00:36:09;4.95;;;3.60;;
57565;SDS011;63999;43.882;-0.310;2023-03-23T00:38:37;7.60;;;4.00;;
57565;SDS011;63999;43.882;-0.310;2023-03-23T00:41:04;5.03;;;3.60;;
57565;SDS011;63999;43.882;-0.310;2023-03-23T00:43:31;8.68;;;4.28;;
57565;SDS011;63999;43.882;-0.310;2023-03-23T00:46:01;5.82;;;3.92;;
57565;SDS011;63999;43.882;-0.310;2023-03-23T00:48:28;5.65;;;3.45;;
57565;SDS011;63999;43.882;-0.310;2023-03-23T00:50:54;7.53;;;3.85;;
57565;SDS011;63999;43.882;-0.310;2023-03-23T00:53:20;4.55;;;3.60;;
57565;SDS011;63999;43.882;-0.310;2023-03-23T00:55:47;4.32;;;3.10;;
57565;SDS011;63999;43.882;-0.310;2023-03-23T00:58:14;5.13;;;3.30;;
57565;SDS011;63999;43.882;-0.310;2023-03-23T01:00:40;5.25;;;3.80;;
57565;SDS011;63999;43.882;-0.310;2023-03-23T01:03:07;8.02;;;3.47;;
57565;SDS011;63999;43.882;-0.310;2023-03-23T01:05:37;6.82;;;3.80;;
57565;SDS011;63999;43.882;-0.310;2023-03-23T01:08:04;7.75;;;4.10;;
57565;SDS011;63999;43.882;-0.310;2023-03-23T01:10:31;4.55;;;3.63;;
57565;SDS011;63999;43.882;-0.310;2023-03-23T01:12:58;5.95;;;3.30;;
57565;SDS011;63999;43.882;-0.310;2023-03-23T01:15:25;6.68;;;3.83;;
57565;SDS011;63999;43.882;-0.310;2023-03-23T01:17:53;5.82;;;3.47;;
57565;SDS011;63999;43.882;-0.310;2023-03-23T01:20:19;6.63;;;3.65;;
57565;SDS011;63999;43.882;-0.310;2023-03-23T01:22:45;5.95;;;3.53;;
57565;SDS011;63999;43.882;-0.310;2023-03-23T01:25:12;4.43;;;3.42;;
57565;SDS011;63999;43.882;-0.310;2023-03-23T01:27:38;6.55;;;3.60;;
57565;SDS011;63999;43.882;-0.310;2023-03-23T01:30:05;5.55;;;3.25;;
57565;SDS011;63999;43.882;-0.310;2023-03-23T01:32:33;5.05;;;3.28;;
57565;SDS011;63999;43.882;-0.310;2023-03-23T01:34:58;9.10;;;3.55;;
57565;SDS011;63999;43.882;-0.310;2023-03-23T01:37:24;6.53;;;3.63;;
57565;SDS011;63999;43.882;-0.310;2023-03-23T01:39:54;4.55;;;3.30;;
57565;SDS011;63999;43.882;-0.310;2023-03-23T01:42:23;6.55;;;3.55;;
57565;SDS011;63999;43.882;-0.310;2023-03-23T01:47:16;5.15;;;3.05;;
57565;SDS011;63999;43.882;-0.310;2023-03-23T01:49:48;4.82;;;3.30;;
57565;SDS011;63999;43.882;-0.310;2023-03-23T01:52:16;5.55;;;3.22;;
57565;SDS011;63999;43.882;-0.310;2023-03-23T01:54:49;5.55;;;2.92;;
57565;SDS011;63999;43.882;-0.310;2023-03-23T01:57:18;7.38;;;3.55;;
57565;SDS011;63999;43.882;-0.310;2023-03-23T01:59:50;5.60;;;3.30;;
57565;SDS011;63999;43.882;-0.310;2023-03-23T02:02:19;5.47;;;3.17;;
57565;SDS011;63999;43.882;-0.310;2023-03-23T02:04:46;4.50;;;3.20;;
57565;SDS011;63999;43.882;-0.310;2023-03-23T02:07:13;4.65;;;2.95;;
57565;SDS011;63999;43.882;-0.310;2023-03-23T02:09:42;5.00;;;3.40;;
57565;SDS011;63999;43.882;-0.310;2023-03-23T02:12:08;5.57;;;3.13;;
57565;SDS011;63999;43.882;-0.310;2023-03-23T02:14:34;5.78;;;3.28;;
57565;SDS011;63999;43.882;-0.310;2023-03-23T02:35:53;7.20;;;3.10;;
57565;SDS011;63999;43.882;-0.310;2023-03-23T02:41:07;4.10;;;2.80;;
57565;SDS011;63999;43.882;-0.310;2023-03-23T02:43:39;6.18;;;3.28;;
57565;SDS011;63999;43.882;-0.310;2023-03-23T02:46:09;6.53;;;3.08;;
57565;SDS011;63999;43.882;-0.310;2023-03-23T02:48:36;5.07;;;3.00;;
57565;SDS011;63999;43.882;-0.310;2023-03-23T02:51:05;5.88;;;3.40;;
57565;SDS011;63999;43.882;-0.310;2023-03-23T02:53:33;5.85;;;3.35;;
57565;SDS011;63999;43.882;-0.310;2023-03-23T02:56:02;6.03;;;3.08;;
57565;SDS011;63999;43.882;-0.310;2023-03-23T02:58:31;4.25;;;3.25;;
57565;SDS011;63999;43.882;-0.310;2023-03-23T03:00:58;3.80;;;3.15;;
57565;SDS011;63999;43.882;-0.310;2023-03-23T03:03:26;4.40;;;3.20;;
57565;SDS011;63999;43.882;-0.310;2023-03-23T03:08:48;6.25;;;3.22;;
57565;SDS011;63999;43.882;-0.310;2023-03-23T03:11:40;4.90;;;3.35;;
57565;SDS011;63999;43.882;-0.310;2023-03-23T03:14:18;6.45;;;3.70;;
57565;SDS011;63999;43.882;-0.310;2023-03-23T03:19:44;5.22;;;3.15;;
57565;SDS011;63999;43.882;-0.310;2023-03-23T03:22:13;6.95;;;3.20;;
57565;SDS011;63999;43.882;-0.310;2023-03-23T03:24:39;6.35;;;3.70;;
57565;SDS011;63999;43.882;-0.310;2023-03-23T03:27:11;5.82;;;3.17;;
57565;SDS011;63999;43.882;-0.310;2023-03-23T03:29:42;5.13;;;3.17;;
57565;SDS011;63999;43.882;-0.310;2023-03-23T03:32:16;8.00;;;3.42;;
57565;SDS011;63999;43.882;-0.310;2023-03-23T03:34:46;4.18;;;3.00;;
57565;SDS011;63999;43.882;-0.310;2023-03-23T03:37:12;5.53;;;3.60;;
57565;SDS011;63999;43.882;-0.310;2023-03-23T03:39:38;6.10;;;3.78;;
57565;SDS011;63999;43.882;-0.310;2023-03-23T03:42:05;4.65;;;3.00;;
57565;SDS011;63999;43.882;-0.310;2023-03-23T03:44:31;5.63;;;3.40;;
57565;SDS011;63999;43.882;-0.310;2023-03-23T03:46:58;4.88;;;3.22;;
57565;SDS011;63999;43.882;-0.310;2023-03-23T03:49:24;5.45;;;3.28;;
57565;SDS011;63999;43.882;-0.310;2023-03-23T03:51:51;5.07;;;3.42;;
57565;SDS011;63999;43.882;-0.310;2023-03-23T03:54:17;6.68;;;3.10;;
57565;SDS011;63999;43.882;-0.310;2023-03-23T03:56:43;5.80;;;3.30;;
57565;SDS011;63999;43.882;-0.310;2023-03-23T03:59:10;5.65;;;3.33;;
57565;SDS011;63999;43.882;-0.310;2023-03-23T04:01:37;5.55;;;3.25;;
57565;SDS011;63999;43.882;-0.310;2023-03-23T04:04:04;6.70;;;3.30;;
57565;SDS011;63999;43.882;-0.310;2023-03-23T04:06:32;4.40;;;3.20;;
57565;SDS011;63999;43.882;-0.310;2023-03-23T04:09:01;5.57;;;3.10;;
57565;SDS011;63999;43.882;-0.310;2023-03-23T04:11:31;5.40;;;3.28;;
57565;SDS011;63999;43.882;-0.310;2023-03-23T04:13:57;4.07;;;3.10;;
57565;SDS011;63999;43.882;-0.310;2023-03-23T04:16:23;7.47;;;3.20;;
57565;SDS011;63999;43.882;-0.310;2023-03-23T04:18:51;5.03;;;3.20;;
57565;SDS011;63999;43.882;-0.310;2023-03-23T04:21:17;4.53;;;3.20;;
57565;SDS011;63999;43.882;-0.310;2023-03-23T04:23:43;4.40;;;2.90;;
57565;SDS011;63999;43.882;-0.310;2023-03-23T04:26:08;4.80;;;3.03;;
57565;SDS011;63999;43.882;-0.310;2023-03-23T04:28:38;7.55;;;3.47;;
57565;SDS011;63999;43.882;-0.310;2023-03-23T04:31:06;6.28;;;3.15;;
57565;SDS011;63999;43.882;-0.310;2023-03-23T04:33:33;4.65;;;3.30;;
57565;SDS011;63999;43.882;-0.310;2023-03-23T04:36:00;5.15;;;3.03;;
57565;SDS011;63999;43.882;-0.310;2023-03-23T04:38:27;5.25;;;2.88;;
57565;SDS011;63999;43.882;-0.310;2023-03-23T04:40:55;4.68;;;3.30;;
57565;SDS011;63999;43.882;-0.310;2023-03-23T04:43:22;7.18;;;3.08;;
57565;SDS011;63999;43.882;-0.310;2023-03-23T04:45:52;5.82;;;3.22;;
57565;SDS011;63999;43.882;-0.310;2023-03-23T04:48:28;5.93;;;3.13;;
57565;SDS011;63999;43.882;-0.310;2023-03-23T04:50:58;6.28;;;3.20;;
57565;SDS011;63999;43.882;-0.310;2023-03-23T04:53:25;5.15;;;2.92;;
57565;SDS011;63999;43.882;-0.310;2023-03-23T04:55:51;9.05;;;3.28;;
57565;SDS011;63999;43.882;-0.310;2023-03-23T04:58:17;4.43;;;3.17;;
57565;SDS011;63999;43.882;-0.310;2023-03-23T05:00:43;5.15;;;3.13;;
57565;SDS011;63999;43.882;-0.310;2023-03-23T05:03:17;5.53;;;3.03;;
57565;SDS011;63999;43.882;-0.310;2023-03-23T05:05:44;4.57;;;3.10;;
57565;SDS011;63999;43.882;-0.310;2023-03-23T05:08:20;4.05;;;2.58;;
57565;SDS011;63999;43.882;-0.310;2023-03-23T05:10:53;5.22;;;2.95;;
57565;SDS011;63999;43.882;-0.310;2023-03-23T05:13:21;4.55;;;3.13;;
57565;SDS011;63999;43.882;-0.310;2023-03-23T05:15:47;5.78;;;3.00;;
57565;SDS011;63999;43.882;-0.310;2023-03-23T05:18:14;7.15;;;3.63;;
57565;SDS011;63999;43.882;-0.310;2023-03-23T05:20:41;5.13;;;3.92;;
57565;SDS011;63999;43.882;-0.310;2023-03-23T05:23:07;5.78;;;3.80;;
57565;SDS011;63999;43.882;-0.310;2023-03-23T05:25:34;5.70;;;3.90;;
57565;SDS011;63999;43.882;-0.310;2023-03-23T05:28:05;6.20;;;4.15;;
57565;SDS011;63999;43.882;-0.310;2023-03-23T05:30:35;5.43;;;3.72;;
57565;SDS011;63999;43.882;-0.310;2023-03-23T05:33:03;6.22;;;3.92;;
57565;SDS011;63999;43.882;-0.310;2023-03-23T05:35:30;8.13;;;4.20;;
57565;SDS011;63999;43.882;-0.310;2023-03-23T05:37:56;5.93;;;4.00;;
57565;SDS011;63999;43.882;-0.310;2023-03-23T05:40:22;6.70;;;4.15;;
57565;SDS011;63999;43.882;-0.310;2023-03-23T05:42:51;6.05;;;4.03;;
57565;SDS011;63999;43.882;-0.310;2023-03-23T05:45:18;6.78;;;4.00;;
57565;SDS011;63999;43.882;-0.310;2023-03-23T05:47:44;6.70;;;4.50;;
57565;SDS011;63999;43.882;-0.310;2023-03-23T05:50:10;7.78;;;4.55;;
57565;SDS011;63999;43.882;-0.310;2023-03-23T05:52:37;8.43;;;4.53;;
57565;SDS011;63999;43.882;-0.310;2023-03-23T05:55:04;6.88;;;4.13;;
57565;SDS011;63999;43.882;-0.310;2023-03-23T05:57:32;7.78;;;4.68;;
57565;SDS011;63999;43.882;-0.310;2023-03-23T05:59:59;7.55;;;4.28;;
57565;SDS011;63999;43.882;-0.310;2023-03-23T06:02:25;9.18;;;4.30;;
57565;SDS011;63999;43.882;-0.310;2023-03-23T06:04:54;5.85;;;4.00;;
57565;SDS011;63999;43.882;-0.310;2023-03-23T06:07:22;7.35;;;3.67;;
57565;SDS011;63999;43.882;-0.310;2023-03-23T06:09:49;5.78;;;4.15;;
57565;SDS011;63999;43.882;-0.310;2023-03-23T06:12:16;6.18;;;3.90;;
57565;SDS011;63999;43.882;-0.310;2023-03-23T06:14:45;6.45;;;3.90;;
57565;SDS011;63999;43.882;-0.310;2023-03-23T06:17:14;5.85;;;4.18;;
57565;SDS011;63999;43.882;-0.310;2023-03-23T06:19:41;6.90;;;4.45;;
57565;SDS011;63999;43.882;-0.310;2023-03-23T06:22:08;6.75;;;5.07;;
57565;SDS011;63999;43.882;-0.310;2023-03-23T06:24:35;8.27;;;5.18;;
57565;SDS011;63999;43.882;-0.310;2023-03-23T06:27:01;7.47;;;4.10;;
57565;SDS011;63999;43.882;-0.310;2023-03-23T06:29:28;6.65;;;4.20;;
57565;SDS011;63999;43.882;-0.310;2023-03-23T06:31:56;4.68;;;3.30;;
57565;SDS011;63999;43.882;-0.310;2023-03-23T06:34:24;5.65;;;3.22;;
57565;SDS011;63999;43.882;-0.310;2023-03-23T06:36:51;6.22;;;3.28;;
57565;SDS011;63999;43.882;-0.310;2023-03-23T06:39:18;5.43;;;3.00;;
57565;SDS011;63999;43.882;-0.310;2023-03-23T06:41:44;5.40;;;2.70;;
57565;SDS011;63999;43.882;-0.310;2023-03-23T06:44:10;4.45;;;2.92;;
57565;SDS011;63999;43.882;-0.310;2023-03-23T06:46:42;4.57;;;2.40;;
57565;SDS011;63999;43.882;-0.310;2023-03-23T06:49:08;4.65;;;2.97;;
57565;SDS011;63999;43.882;-0.310;2023-03-23T06:51:35;7.88;;;3.10;;
57565;SDS011;63999;43.882;-0.310;2023-03-23T06:54:01;5.65;;;3.05;;
57565;SDS011;63999;43.882;-0.310;2023-03-23T06:56:27;3.90;;;3.00;;
57565;SDS011;63999;43.882;-0.310;2023-03-23T06:58:55;5.03;;;3.10;;
57565;SDS011;63999;43.882;-0.310;2023-03-23T07:01:23;5.90;;;2.90;;
57565;SDS011;63999;43.882;-0.310;2023-03-23T07:03:49;5.30;;;3.28;;
57565;SDS011;63999;43.882;-0.310;2023-03-23T07:06:15;5.85;;;3.00;;
57565;SDS011;63999;43.882;-0.310;2023-03-23T07:08:41;5.95;;;3.45;;
57565;SDS011;63999;43.882;-0.310;2023-03-23T07:11:07;4.82;;;3.40;;
57565;SDS011;63999;43.882;-0.310;2023-03-23T07:13:35;4.35;;;3.50;;
57565;SDS011;63999;43.882;-0.310;2023-03-23T07:16:04;5.03;;;3.72;;
57565;SDS011;63999;43.882;-0.310;2023-03-23T07:18:31;4.95;;;3.53;;
57565;SDS011;63999;43.882;-0.310;2023-03-23T07:20:57;9.40;;;4.00;;
57565;SDS011;63999;43.882;-0.310;2023-03-23T07:23:23;6.80;;;4.00;;
57565;SDS011;63999;43.882;-0.310;2023-03-23T07:25:50;5.95;;;3.60;;
57565;SDS011;63999;43.882;-0.310;2023-03-23T07:28:15;7.50;;;4.15;;
57565;SDS011;63999;43.882;-0.310;2023-03-23T07:30:42;7.53;;;4.10;;
57565;SDS011;63999;43.882;-0.310;2023-03-23T07:33:08;6.00;;;3.72;;
57565;SDS011;63999;43.882;-0.310;2023-03-23T07:35:34;4.78;;;3.25;;
57565;SDS011;63999;43.882;-0.310;2023-03-23T07:38:01;5.82;;;3.45;;
57565;SDS011;63999;43.882;-0.310;2023-03-23T07:40:29;6.05;;;3.63;;
57565;SDS011;63999;43.882;-0.310;2023-03-23T07:42:58;7.43;;;3.88;;
57565;SDS011;63999;43.882;-0.310;2023-03-23T07:45:25;6.57;;;3.63;;
57565;SDS011;63999;43.882;-0.310;2023-03-23T07:47:52;6.07;;;3.78;;
57565;SDS011;63999;43.882;-0.310;2023-03-23T07:50:18;6.30;;;3.95;;
57565;SDS011;63999;43.882;-0.310;2023-03-23T07:52:47;5.03;;;3.30;;
57565;SDS011;63999;43.882;-0.310;2023-03-23T07:55:13;6.25;;;3.72;;
57565;SDS011;63999;43.882;-0.310;2023-03-23T07:57:43;4.45;;;3.20;;
57565;SDS011;63999;43.882;-0.310;2023-03-23T08:00:10;4.18;;;3.10;;
57565;SDS011;63999;43.882;-0.310;2023-03-23T08:02:47;4.97;;;3.20;;
57565;SDS011;63999;43.882;-0.310;2023-03-23T08:05:15;6.68;;;3.50;;
57565;SDS011;63999;43.882;-0.310;2023-03-23T08:07:42;5.70;;;3.42;;
57565;SDS011;63999;43.882;-0.310;2023-03-23T08:10:12;5.95;;;3.60;;
57565;SDS011;63999;43.882;-0.310;2023-03-23T08:12:40;5.43;;;3.58;;
57565;SDS011;63999;43.882;-0.310;2023-03-23T08:15:08;5.65;;;3.78;;
57565;SDS011;63999;43.882;-0.310;2023-03-23T08:17:37;8.65;;;3.45;;
57565;SDS011;63999;43.882;-0.310;2023-03-23T08:20:05;5.85;;;3.47;;
57565;SDS011;63999;43.882;-0.310;2023-03-23T08:22:34;4.28;;;3.20;;
57565;SDS011;63999;43.882;-0.310;2023-03-23T08:25:01;4.93;;;3.60;;
57565;SDS011;63999;43.882;-0.310;2023-03-23T08:27:28;7.80;;;3.72;;
57565;SDS011;63999;43.882;-0.310;2023-03-23T08:29:55;6.15;;;3.50;;
57565;SDS011;63999;43.882;-0.310;2023-03-23T08:32:27;5.70;;;3.45;;
57565;SDS011;63999;43.882;-0.310;2023-03-23T08:34:54;3.90;;;2.90;;
57565;SDS011;63999;43.882;-0.310;2023-03-23T08:37:21;5.70;;;2.72;;
57565;SDS011;63999;43.882;-0.310;2023-03-23T08:39:49;4.10;;;2.80;;
57565;SDS011;63999;43.882;-0.310;2023-03-23T08:42:17;4.82;;;2.70;;
57565;SDS011;63999;43.882;-0.310;2023-03-23T08:44:43;7.18;;;3.22;;
57565;SDS011;63999;43.882;-0.310;2023-03-23T08:47:09;5.50;;;2.80;;
57565;SDS011;63999;43.882;-0.310;2023-03-23T08:49:35;4.63;;;2.80;;
57565;SDS011;63999;43.882;-0.310;2023-03-23T08:52:02;4.35;;;3.15;;
57565;SDS011;63999;43.882;-0.310;2023-03-23T08:54:28;5.00;;;3.20;;
57565;SDS011;63999;43.882;-0.310;2023-03-23T08:56:55;5.55;;;2.92;;
57565;SDS011;63999;43.882;-0.310;2023-03-23T08:59:24;4.70;;;2.72;;
57565;SDS011;63999;43.882;-0.310;2023-03-23T09:01:51;3.95;;;2.78;;
57565;SDS011;63999;43.882;-0.310;2023-03-23T09:04:17;8.48;;;2.80;;
57565;SDS011;63999;43.882;-0.310;2023-03-23T09:06:43;4.18;;;2.80;;
57565;SDS011;63999;43.882;-0.310;2023-03-23T09:09:11;4.47;;;2.90;;
57565;SDS011;63999;43.882;-0.310;2023-03-23T09:11:37;3.28;;;2.30;;
57565;SDS011;63999;43.882;-0.310;2023-03-23T09:14:05;6.90;;;2.80;;
57565;SDS011;63999;43.882;-0.310;2023-03-23T09:16:32;4.35;;;2.92;;
57565;SDS011;63999;43.882;-0.310;2023-03-23T09:19:02;4.80;;;2.80;;
57565;SDS011;63999;43.882;-0.310;2023-03-23T09:21:28;4.78;;;2.30;;
57565;SDS011;63999;43.882;-0.310;2023-03-23T09:23:55;4.70;;;2.60;;
57565;SDS011;63999;43.882;-0.310;2023-03-23T09:26:25;4.63;;;2.90;;
57565;SDS011;63999;43.882;-0.310;2023-03-23T09:28:59;4.20;;;2.85;;
57565;SDS011;63999;43.882;-0.310;2023-03-23T09:31:25;3.65;;;2.60;;
57565;SDS011;63999;43.882;-0.310;2023-03-23T09:33:53;3.47;;;2.42;;
57565;SDS011;63999;43.882;-0.310;2023-03-23T09:36:20;4.88;;;2.80;;
57565;SDS011;63999;43.882;-0.310;2023-03-23T09:38:49;3.58;;;2.60;;
57565;SDS011;63999;43.882;-0.310;2023-03-23T09:41:34;3.65;;;2.50;;
57565;SDS011;63999;43.882;-0.310;2023-03-23T09:50:20;5.15;;;2.47;;
57565;SDS011;63999;43.882;-0.310;2023-03-23T09:53:02;3.55;;;2.30;;
57565;SDS011;63999;43.882;-0.310;2023-03-23T09:55:38;5.05;;;2.50;;
57565;SDS011;63999;43.882;-0.310;2023-03-23T09:58:40;3.53;;;2.42;;
57565;SDS011;63999;43.882;-0.310;2023-03-23T10:01:10;4.13;;;2.30;;
57565;SDS011;63999;43.882;-0.310;2023-03-23T10:04:12;4.78;;;2.58;;
57565;SDS011;63999;43.882;-0.310;2023-03-23T10:06:45;4.03;;;2.50;;
57565;SDS011;63999;43.882;-0.310;2023-03-23T10:09:13;3.83;;;2.30;;
57565;SDS011;63999;43.882;-0.310;2023-03-23T10:11:54;4.05;;;2.40;;
57565;SDS011;63999;43.882;-0.310;2023-03-23T10:14:34;4.38;;;2.60;;
57565;SDS011;63999;43.882;-0.310;2023-03-23T10:22:17;4.28;;;2.35;;
57565;SDS011;63999;43.882;-0.310;2023-03-23T10:30:27;6.68;;;2.60;;
57565;SDS011;63999;43.882;-0.310;2023-03-23T10:33:13;4.28;;;2.30;;
57565;SDS011;63999;43.882;-0.310;2023-03-23T10:38:34;4.27;;;2.10;;
57565;SDS011;63999;43.882;-0.310;2023-03-23T10:41:08;5.50;;;2.60;;
57565;SDS011;63999;43.882;-0.310;2023-03-23T10:43:44;4.55;;;2.08;;
57565;SDS011;63999;43.882;-0.310;2023-03-23T10:49:08;2.53;;;2.13;;
57565;SDS011;63999;43.882;-0.310;2023-03-23T10:51:40;2.95;;;1.98;;
57565;SDS011;63999;43.882;-0.310;2023-03-23T10:54:09;4.20;;;2.13;;
57565;SDS011;63999;43.882;-0.310;2023-03-23T10:56:39;5.25;;;2.30;;
57565;SDS011;63999;43.882;-0.310;2023-03-23T10:59:27;2.97;;;2.05;;
57565;SDS011;63999;43.882;-0.310;2023-03-23T11:01:56;4.22;;;1.95;;
57565;SDS011;63999;43.882;-0.310;2023-03-23T11:04:25;5.07;;;1.90;;
57565;SDS011;63999;43.882;-0.310;2023-03-23T11:06:52;4.07;;;1.98;;
57565;SDS011;63999;43.882;-0.310;2023-03-23T11:09:35;3.30;;;2.10;;
57565;SDS011;63999;43.882;-0.310;2023-03-23T11:12:17;3.22;;;1.98;;
57565;SDS011;63999;43.882;-0.310;2023-03-23T11:14:44;2.35;;;1.92;;
57565;SDS011;63999;43.882;-0.310;2023-03-23T11:17:26;3.50;;;1.80;;
57565;SDS011;63999;43.882;-0.310;2023-03-23T11:19:52;2.90;;;2.15;;
57565;SDS011;63999;43.882;-0.310;2023-03-23T11:24:56;4.78;;;1.85;;
57565;SDS011;63999;43.882;-0.310;2023-03-23T11:27:27;3.60;;;1.90;;
57565;SDS011;63999;43.882;-0.310;2023-03-23T11:29:55;2.83;;;1.83;;
57565;SDS011;63999;43.882;-0.310;2023-03-23T11:32:34;3.95;;;2.10;;
57565;SDS011;63999;43.882;-0.310;2023-03-23T11:35:02;3.95;;;2.00;;
57565;SDS011;63999;43.882;-0.310;2023-03-23T11:37:40;2.95;;;1.80;;
57565;SDS011;63999;43.882;-0.310;2023-03-23T11:42:41;4.13;;;2.00;;
57565;SDS011;63999;43.882;-0.310;2023-03-23T11:45:14;4.68;;;2.22;;
57565;SDS011;63999;43.882;-0.310;2023-03-23T11:47:47;4.53;;;1.67;;
57565;SDS011;63999;43.882;-0.310;2023-03-23T11:50:22;2.83;;;2.00;;
57565;SDS011;63999;43.882;-0.310;2023-03-23T11:53:02;3.05;;;1.95;;
57565;SDS011;63999;43.882;-0.310;2023-03-23T11:58:31;3.60;;;2.00;;
57565;SDS011;63999;43.882;-0.310;2023-03-23T12:03:35;4.10;;;1.70;;
57565;SDS011;63999;43.882;-0.310;2023-03-23T12:09:30;3.88;;;1.83;;
57565;SDS011;63999;43.882;-0.310;2023-03-23T12:12:19;4.20;;;2.08;;
57565;SDS011;63999;43.882;-0.310;2023-03-23T12:24:05;3.20;;;1.67;;
57565;SDS011;63999;43.882;-0.310;2023-03-23T12:26:47;2.58;;;1.63;;
57565;SDS011;63999;43.882;-0.310;2023-03-23T12:44:07;3.92;;;1.52;;
57565;SDS011;63999;43.882;-0.310;2023-03-23T12:49:31;2.72;;;1.50;;
57565;SDS011;63999;43.882;-0.310;2023-03-23T12:52:10;5.60;;;1.80;;
57565;SDS011;63999;43.882;-0.310;2023-03-23T12:57:35;2.60;;;1.58;;
57565;SDS011;63999;43.882;-0.310;2023-03-23T13:00:20;2.35;;;1.73;;
57565;SDS011;63999;43.882;-0.310;2023-03-23T13:03:01;2.95;;;1.60;;
57565;SDS011;63999;43.882;-0.310;2023-03-23T13:06:03;3.22;;;1.60;;
57565;SDS011;63999;43.882;-0.310;2023-03-23T13:22:41;3.58;;;1.70;;
57565;SDS011;63999;43.882;-0.310;2023-03-23T13:27:59;3.95;;;1.52;;
57565;SDS011;63999;43.882;-0.310;2023-03-23T13:30:27;3.90;;;1.45;;
57565;SDS011;63999;43.882;-0.310;2023-03-23T13:33:06;2.58;;;1.58;;
57565;SDS011;63999;43.882;-0.310;2023-03-23T13:35:37;2.70;;;1.58;;
57565;SDS011;63999;43.882;-0.310;2023-03-23T13:38:23;3.58;;;1.60;;
57565;SDS011;63999;43.882;-0.310;2023-03-23T13:40:53;1.85;;;1.20;;
57565;SDS011;63999;43.882;-0.310;2023-03-23T13:43:27;2.30;;;1.40;;
57565;SDS011;63999;43.882;-0.310;2023-03-23T13:46:08;1.92;;;1.30;;
57565;SDS011;63999;43.882;-0.310;2023-03-23T13:48:50;3.53;;;1.30;;
57565;SDS011;63999;43.882;-0.310;2023-03-23T13:56:41;4.05;;;1.50;;
57565;SDS011;63999;43.882;-0.310;2023-03-23T13:59:29;2.83;;;1.58;;
57565;SDS011;63999;43.882;-0.310;2023-03-23T14:04:55;3.78;;;1.60;;
57565;SDS011;63999;43.882;-0.310;2023-03-23T14:07:21;2.28;;;1.42;;
57565;SDS011;63999;43.882;-0.310;2023-03-23T14:09:49;2.75;;;1.55;;
57565;SDS011;63999;43.882;-0.310;2023-03-23T14:12:23;3.55;;;1.65;;
57565;SDS011;63999;43.882;-0.310;2023-03-23T14:14:56;2.35;;;1.60;;
57565;SDS011;63999;43.882;-0.310;2023-03-23T14:17:30;3.17;;;1.30;;
57565;SDS011;63999;43.882;-0.310;2023-03-23T14:19:58;4.25;;;1.40;;
57565;SDS011;63999;43.882;-0.310;2023-03-23T14:22:26;2.33;;;1.60;;
57565;SDS011;63999;43.882;-0.310;2023-03-23T14:25:09;2.72;;;1.80;;
57565;SDS011;63999;43.882;-0.310;2023-03-23T14:27:38;3.20;;;1.25;;
57565;SDS011;63999;43.882;-0.310;2023-03-23T14:30:07;1.90;;;1.20;;
57565;SDS011;63999;43.882;-0.310;2023-03-23T14:32:37;4.82;;;1.25;;
57565;SDS011;63999;43.882;-0.310;2023-03-23T14:35:07;2.42;;;1.30;;
57565;SDS011;63999;43.882;-0.310;2023-03-23T14:37:49;2.92;;;1.20;;
57565;SDS011;63999;43.882;-0.310;2023-03-23T14:40:16;2.30;;;1.40;;
57565;SDS011;63999;43.882;-0.310;2023-03-23T14:42:43;3.03;;;1.38;;
57565;SDS011;63999;43.882;-0.310;2023-03-23T14:45:12;1.85;;;1.40;;
57565;SDS011;63999;43.882;-0.310;2023-03-23T14:50:27;2.40;;;1.27;;
57565;SDS011;63999;43.882;-0.310;2023-03-23T14:52:56;4.18;;;1.48;;
57565;SDS011;63999;43.882;-0.310;2023-03-23T14:55:27;1.70;;;1.15;;
57565;SDS011;63999;43.882;-0.310;2023-03-23T14:57:56;2.35;;;1.20;;
57565;SDS011;63999;43.882;-0.310;2023-03-23T15:00:34;4.25;;;1.20;;
57565;SDS011;63999;43.882;-0.310;2023-03-23T15:03:04;2.97;;;1.50;;
57565;SDS011;63999;43.882;-0.310;2023-03-23T15:05:36;10.45;;;1.83;;
57565;SDS011;63999;43.882;-0.310;2023-03-23T15:08:07;2.83;;;1.25;;
57565;SDS011;63999;43.882;-0.310;2023-03-23T15:10:37;4.15;;;1.40;;
57565;SDS011;63999;43.882;-0.310;2023-03-23T15:13:05;1.92;;;1.42;;
57565;SDS011;63999;43.882;-0.310;2023-03-23T15:15:41;4.60;;;1.77;;
57565;SDS011;63999;43.882;-0.310;2023-03-23T15:18:23;2.45;;;1.60;;
57565;SDS011;63999;43.882;-0.310;2023-03-23T15:21:09;3.67;;;1.80;;
57565;SDS011;63999;43.882;-0.310;2023-03-23T15:24:18;2.63;;;1.65;;
57565;SDS011;63999;43.882;-0.310;2023-03-23T15:27:17;5.38;;;1.65;;
57565;SDS011;63999;43.882;-0.310;2023-03-23T15:29:54;3.03;;;1.80;;
57565;SDS011;63999;43.882;-0.310;2023-03-23T15:32:37;6.43;;;2.03;;
57565;SDS011;63999;43.882;-0.310;2023-03-23T15:35:16;3.35;;;1.85;;
57565;SDS011;63999;43.882;-0.310;2023-03-23T15:37:57;3.53;;;1.83;;
57565;SDS011;63999;43.882;-0.310;2023-03-23T15:40:36;4.20;;;1.75;;
57565;SDS011;63999;43.882;-0.310;2023-03-23T15:48:46;2.25;;;1.58;;
57565;SDS011;63999;43.882;-0.310;2023-03-23T15:51:17;2.00;;;1.67;;
57565;SDS011;63999;43.882;-0.310;2023-03-23T15:53:50;2.78;;;1.75;;
57565;SDS011;63999;43.882;-0.310;2023-03-23T15:56:29;3.17;;;1.98;;
57565;SDS011;63999;43.882;-0.310;2023-03-23T15:58:57;4.05;;;1.63;;
57565;SDS011;63999;43.882;-0.310;2023-03-23T16:01:34;6.68;;;2.17;;
57565;SDS011;63999;43.882;-0.310;2023-03-23T16:06:46;3.88;;;2.00;;
57565;SDS011;63999;43.882;-0.310;2023-03-23T16:09:22;6.70;;;2.03;;
57565;SDS011;63999;43.882;-0.310;2023-03-23T16:11:48;3.17;;;2.10;;
57565;SDS011;63999;43.882;-0.310;2023-03-23T16:14:14;2.95;;;2.00;;
57565;SDS011;63999;43.882;-0.310;2023-03-23T16:16:47;2.97;;;2.15;;
57565;SDS011;63999;43.882;-0.310;2023-03-23T16:19:23;3.50;;;1.73;;
57565;SDS011;63999;43.882;-0.310;2023-03-23T16:21:59;5.15;;;2.30;;
57565;SDS011;63999;43.882;-0.310;2023-03-23T16:24:25;9.05;;;2.22;;
57565;SDS011;63999;43.882;-0.310;2023-03-23T16:26:54;4.05;;;2.20;;
57565;SDS011;63999;43.882;-0.310;2023-03-23T16:29:41;3.42;;;2.10;;
57565;SDS011;63999;43.882;-0.310;2023-03-23T16:32:14;4.55;;;2.00;;
57565;SDS011;63999;43.882;-0.310;2023-03-23T16:34:40;5.30;;;2.03;;
57565;SDS011;63999;43.882;-0.310;2023-03-23T16:37:07;3.90;;;2.20;;
57565;SDS011;63999;43.882;-0.310;2023-03-23T16:39:38;3.95;;;2.40;;
57565;SDS011;63999;43.882;-0.310;2023-03-23T16:42:04;4.63;;;2.38;;
57565;SDS011;63999;43.882;-0.310;2023-03-23T16:44:33;2.45;;;1.60;;
57565;SDS011;63999;43.882;-0.310;2023-03-23T16:47:06;4.18;;;2.40;;
57565;SDS011;63999;43.882;-0.310;2023-03-23T16:49:37;5.13;;;2.30;;
57565;SDS011;63999;43.882;-0.310;2023-03-23T16:52:06;3.90;;;2.50;;
57565;SDS011;63999;43.882;-0.310;2023-03-23T16:54:32;5.55;;;2.58;;
57565;SDS011;63999;43.882;-0.310;2023-03-23T16:56:58;3.78;;;2.50;;
57565;SDS011;63999;43.882;-0.310;2023-03-23T16:59:26;3.90;;;2.30;;
57565;SDS011;63999;43.882;-0.310;2023-03-23T17:01:58;3.25;;;2.25;;
57565;SDS011;63999;43.882;-0.310;2023-03-23T17:04:33;3.00;;;2.10;;